sensor_id;sensor_type;location;lat;lon;timestamp;pressure;altitude;pressure_sealevel;temperature;humidity
83299;BME280;73199;50.854;4.342;2023-10-13T00:02:19;101103.96;;;19.70;53.83
83299;BME280;73199;50.854;4.342;2023-10-13T00:04:51;101102.38;;;19.80;53.51
83299;BME280;73199;50.854;4.342;2023-10-13T00:07:24;101107.33;;;19.54;53.59
83299;BME280;73199;50.854;4.342;2023-10-13T00:09:28;101106.33;;;19.75;53.86
83299;BME280;73199;50.854;4.342;2023-10-13T00:11:53;101102.40;;;19.09;53.91
83299;BME280;73199;50.854;4.342;2023-10-13T00:14:23;101101.28;;;19.37;54.20
83299;BME280;73199;50.854;4.342;2023-10-13T00:16:49;101095.00;;;19.57;54.42
83299;BME280;73199;50.854;4.342;2023-10-13T00:19:09;101091.58;;;19.63;54.25
83299;BME280;73199;50.854;4.342;2023-10-13T00:21:40;101091.95;;;19.48;54.59
83299;BME280;73199;50.854;4.342;2023-10-13T00:24:01;101089.24;;;19.55;54.37
83299;BME280;73199;50.854;4.342;2023-10-13T00:26:39;101081.80;;;19.82;53.66
83299;BME280;73199;50.854;4.342;2023-10-13T00:28:59;101078.07;;;19.38;54.21
83299;BME280;73199;50.854;4.342;2023-10-13T00:31:16;101077.56;;;19.13;54.81
83299;BME280;73199;50.854;4.342;2023-10-13T00:33:42;101074.44;;;18.97;55.00
83299;BME280;73199;50.854;4.342;2023-10-13T00:36:07;101063.76;;;19.12;54.08
83299;BME280;73199;50.854;4.342;2023-10-13T00:38:37;101063.10;;;19.86;53.26
83299;BME280;73199;50.854;4.342;2023-10-13T00:41:03;101064.89;;;19.61;54.10
83299;BME280;73199;50.854;4.342;2023-10-13T00:43:23;101056.39;;;19.64;53.14
83299;BME280;73199;50.854;4.342;2023-10-13T00:45:51;101054.66;;;19.65;53.67
83299;BME280;73199;50.854;4.342;2023-10-13T00:48:15;101052.56;;;18.99;54.78
83299;BME280;73199;50.854;4.342;2023-10-13T00:50:40;101046.68;;;19.30;55.37
83299;BME280;73199;50.854;4.342;2023-10-13T00:53:05;101037.34;;;19.10;54.50
83299;BME280;73199;50.854;4.342;2023-10-13T00:55:30;101029.94;;;19.20;54.14
83299;BME280;73199;50.854;4.342;2023-10-13T00:57:57;101029.40;;;19.30;54.07
83299;BME280;73199;50.854;4.342;2023-10-13T01:00:21;101028.18;;;18.99;54.85
83299;BME280;73199;50.854;4.342;2023-10-13T01:02:46;101023.85;;;19.23;54.03
83299;BME280;73199;50.854;4.342;2023-10-13T01:05:12;101024.04;;;19.56;53.44
83299;BME280;73199;50.854;4.342;2023-10-13T01:07:38;101018.15;;;19.61;53.96
83299;BME280;73199;50.854;4.342;2023-10-13T01:10:10;101020.44;;;19.32;54.09
83299;BME280;73199;50.854;4.342;2023-10-13T01:12:28;101017.59;;;19.55;54.29
83299;BME280;73199;50.854;4.342;2023-10-13T01:15:16;101012.81;;;19.94;53.94
83299;BME280;73199;50.854;4.342;2023-10-13T01:17:19;101002.04;;;19.17;55.44
83299;BME280;73199;50.854;4.342;2023-10-13T01:19:45;100993.41;;;20.57;52.31
83299;BME280;73199;50.854;4.342;2023-10-13T01:22:15;100987.41;;;20.05;52.32
83299;BME280;73199;50.854;4.342;2023-10-13T01:24:35;100984.48;;;20.64;51.11
83299;BME280;73199;50.854;4.342;2023-10-13T01:27:01;100978.17;;;19.95;53.06
83299;BME280;73199;50.854;4.342;2023-10-13T01:29:32;100976.42;;;20.11;52.53
83299;BME280;73199;50.854;4.342;2023-10-13T01:31:57;100975.27;;;20.01;52.73
83299;BME280;73199;50.854;4.342;2023-10-13T01:34:23;100971.36;;;20.25;52.24
83299;BME280;73199;50.854;4.342;2023-10-13T01:36:43;100968.46;;;19.71;53.17
83299;BME280;73199;50.854;4.342;2023-10-13T01:39:08;100965.60;;;19.35;53.69
83299;BME280;73199;50.854;4.342;2023-10-13T01:43:59;100948.59;;;19.99;53.06
83299;BME280;73199;50.854;4.342;2023-10-13T01:46:24;100947.27;;;20.59;51.51
83299;BME280;73199;50.854;4.342;2023-10-13T01:48:55;100942.53;;;20.35;51.66
83299;BME280;73199;50.854;4.342;2023-10-13T01:51:20;100937.88;;;20.05;52.51
83299;BME280;73199;50.854;4.342;2023-10-13T01:53:45;100933.47;;;19.69;52.95
83299;BME280;73199;50.854;4.342;2023-10-13T01:56:19;100932.43;;;19.38;53.67
83299;BME280;73199;50.854;4.342;2023-10-13T01:58:31;100925.77;;;19.64;53.17
83299;BME280;73199;50.854;4.342;2023-10-13T02:01:11;100921.65;;;20.03;52.63
83299;BME280;73199;50.854;4.342;2023-10-13T02:03:27;100918.49;;;20.42;52.16
83299;BME280;73199;50.854;4.342;2023-10-13T02:05:53;100914.85;;;20.12;52.20
83299;BME280;73199;50.854;4.342;2023-10-13T02:08:20;100906.78;;;19.84;53.49
83299;BME280;73199;50.854;4.342;2023-10-13T02:10:45;100892.24;;;19.64;53.01
83299;BME280;73199;50.854;4.342;2023-10-13T02:13:11;100892.89;;;20.38;51.64
83299;BME280;73199;50.854;4.342;2023-10-13T02:15:35;100884.04;;;20.32;51.67
83299;BME280;73199;50.854;4.342;2023-10-13T02:18:00;100885.28;;;20.08;51.67
83299;BME280;73199;50.854;4.342;2023-10-13T02:20:21;100881.12;;;19.93;52.88
83299;BME280;73199;50.854;4.342;2023-10-13T02:22:46;100875.76;;;19.57;53.71
83299;BME280;73199;50.854;4.342;2023-10-13T02:25:17;100875.60;;;20.04;53.05
83299;BME280;73199;50.854;4.342;2023-10-13T02:27:36;100873.59;;;19.35;53.85
83299;BME280;73199;50.854;4.342;2023-10-13T02:30:10;100873.10;;;19.65;53.79
83299;BME280;73199;50.854;4.342;2023-10-13T02:32:35;100869.36;;;19.60;53.04
83299;BME280;73199;50.854;4.342;2023-10-13T02:34:53;100879.53;;;20.06;52.17
83299;BME280;73199;50.854;4.342;2023-10-13T02:37:18;100881.98;;;19.45;53.68
83299;BME280;73199;50.854;4.342;2023-10-13T02:39:44;100873.95;;;20.08;52.76
83299;BME280;73199;50.854;4.342;2023-10-13T02:42:10;100859.46;;;19.53;53.27
83299;BME280;73199;50.854;4.342;2023-10-13T02:44:40;100849.54;;;19.58;53.31
83299;BME280;73199;50.854;4.342;2023-10-13T02:47:06;100852.57;;;20.16;52.14
83299;BME280;73199;50.854;4.342;2023-10-13T02:49:27;100850.27;;;20.47;51.96
83299;BME280;73199;50.854;4.342;2023-10-13T02:51:51;100850.98;;;19.78;53.40
83299;BME280;73199;50.854;4.342;2023-10-13T02:54:17;100847.56;;;20.02;53.45
83299;BME280;73199;50.854;4.342;2023-10-13T02:56:47;100845.56;;;20.05;53.00
83299;BME280;73199;50.854;4.342;2023-10-13T02:59:12;100839.00;;;19.18;54.58
83299;BME280;73199;50.854;4.342;2023-10-13T03:01:34;100835.86;;;19.53;53.93
83299;BME280;73199;50.854;4.342;2023-10-13T03:03:59;100831.66;;;19.84;53.63
83299;BME280;73199;50.854;4.342;2023-10-13T03:06:25;100827.25;;;19.75;53.31
83299;BME280;73199;50.854;4.342;2023-10-13T03:08:51;100825.21;;;20.04;52.85
83299;BME280;73199;50.854;4.342;2023-10-13T03:11:15;100822.49;;;20.17;53.00
83299;BME280;73199;50.854;4.342;2023-10-13T03:13:41;100817.35;;;19.93;52.71
83299;BME280;73199;50.854;4.342;2023-10-13T03:16:13;100819.52;;;20.47;52.37
83299;BME280;73199;50.854;4.342;2023-10-13T03:18:37;100811.06;;;20.33;52.44
83299;BME280;73199;50.854;4.342;2023-10-13T03:20:58;100821.99;;;19.95;52.81
83299;BME280;73199;50.854;4.342;2023-10-13T03:23:28;100816.46;;;19.55;53.86
83299;BME280;73199;50.854;4.342;2023-10-13T03:25:53;100812.19;;;20.24;52.59
83299;BME280;73199;50.854;4.342;2023-10-13T03:28:14;100810.43;;;20.01;52.54
83299;BME280;73199;50.854;4.342;2023-10-13T03:30:39;100809.66;;;20.64;51.64
83299;BME280;73199;50.854;4.342;2023-10-13T03:33:05;100808.24;;;20.08;52.45
83299;BME280;73199;50.854;4.342;2023-10-13T03:35:30;100815.18;;;20.26;53.36
83299;BME280;73199;50.854;4.342;2023-10-13T03:38:05;100823.28;;;19.55;54.58
83299;BME280;73199;50.854;4.342;2023-10-13T03:40:29;100821.05;;;19.86;53.81
83299;BME280;73199;50.854;4.342;2023-10-13T03:42:46;100812.75;;;19.97;52.75
83299;BME280;73199;50.854;4.342;2023-10-13T03:45:12;100807.79;;;19.93;52.86
83299;BME280;73199;50.854;4.342;2023-10-13T03:47:38;100804.92;;;19.69;54.77
83299;BME280;73199;50.854;4.342;2023-10-13T03:50:03;100801.31;;;20.00;53.19
83299;BME280;73199;50.854;4.342;2023-10-13T03:52:34;100800.80;;;19.94;53.99
83299;BME280;73199;50.854;4.342;2023-10-13T03:54:54;100797.20;;;19.50;54.46
83299;BME280;73199;50.854;4.342;2023-10-13T03:57:31;100797.90;;;20.21;52.59
83299;BME280;73199;50.854;4.342;2023-10-13T03:59:45;100795.68;;;19.82;53.19
83299;BME280;73199;50.854;4.342;2023-10-13T04:02:16;100795.32;;;20.47;51.87
83299;BME280;73199;50.854;4.342;2023-10-13T04:04:36;100799.99;;;20.36;52.32
83299;BME280;73199;50.854;4.342;2023-10-13T04:07:01;100793.05;;;19.94;53.61
83299;BME280;73199;50.854;4.342;2023-10-13T04:09:27;100785.61;;;19.57;53.75
83299;BME280;73199;50.854;4.342;2023-10-13T04:11:52;100793.14;;;19.96;53.45
83299;BME280;73199;50.854;4.342;2023-10-13T04:14:19;100795.68;;;19.74;53.47
83299;BME280;73199;50.854;4.342;2023-10-13T04:16:44;100787.41;;;20.32;53.53
83299;BME280;73199;50.854;4.342;2023-10-13T04:19:20;100777.54;;;20.19;53.03
83299;BME280;73199;50.854;4.342;2023-10-13T04:21:35;100773.53;;;19.74;53.48
83299;BME280;73199;50.854;4.342;2023-10-13T04:24:00;100774.26;;;19.92;53.51
83299;BME280;73199;50.854;4.342;2023-10-13T04:26:26;100766.78;;;20.16;53.60
83299;BME280;73199;50.854;4.342;2023-10-13T04:28:50;100760.48;;;19.33;54.18
83299;BME280;73199;50.854;4.342;2023-10-13T04:31:16;100750.26;;;19.77;54.06
83299;BME280;73199;50.854;4.342;2023-10-13T04:33:42;100745.45;;;19.46;54.10
83299;BME280;73199;50.854;4.342;2023-10-13T04:36:09;100735.23;;;19.77;53.43
83299;BME280;73199;50.854;4.342;2023-10-13T04:38:42;100726.67;;;19.80;54.29
83299;BME280;73199;50.854;4.342;2023-10-13T04:41:04;100714.67;;;20.75;51.17
83299;BME280;73199;50.854;4.342;2023-10-13T04:43:29;100705.99;;;20.68;51.43
83299;BME280;73199;50.854;4.342;2023-10-13T04:45:49;100699.29;;;20.06;52.16
83299;BME280;73199;50.854;4.342;2023-10-13T04:48:14;100686.72;;;21.07;50.98
83299;BME280;73199;50.854;4.342;2023-10-13T04:50:41;100682.76;;;21.18;50.87
83299;BME280;73199;50.854;4.342;2023-10-13T04:53:05;100675.30;;;21.43;50.25
83299;BME280;73199;50.854;4.342;2023-10-13T04:55:57;100672.09;;;21.42;50.36
83299;BME280;73199;50.854;4.342;2023-10-13T04:58:02;100672.78;;;20.89;51.06
83299;BME280;73199;50.854;4.342;2023-10-13T05:00:22;100664.76;;;20.61;51.58
83299;BME280;73199;50.854;4.342;2023-10-13T05:02:48;100651.69;;;21.09;50.61
83299;BME280;73199;50.854;4.342;2023-10-13T05:05:14;100634.48;;;20.66;51.35
83299;BME280;73199;50.854;4.342;2023-10-13T05:07:43;100639.59;;;20.85;51.14
83299;BME280;73199;50.854;4.342;2023-10-13T05:10:07;100642.62;;;21.10;50.34
83299;BME280;73199;50.854;4.342;2023-10-13T05:12:34;100638.51;;;21.14;50.95
83299;BME280;73199;50.854;4.342;2023-10-13T05:14:54;100637.71;;;21.15;50.45
83299;BME280;73199;50.854;4.342;2023-10-13T05:17:20;100635.23;;;20.48;51.19
83299;BME280;73199;50.854;4.342;2023-10-13T05:19:45;100637.77;;;21.06;50.78
83299;BME280;73199;50.854;4.342;2023-10-13T05:22:16;100634.03;;;20.55;56.21
83299;BME280;73199;50.854;4.342;2023-10-13T05:24:36;100630.70;;;20.51;51.99
83299;BME280;73199;50.854;4.342;2023-10-13T05:27:02;100624.76;;;20.30;52.32
83299;BME280;73199;50.854;4.342;2023-10-13T05:29:27;100621.04;;;20.71;52.02
83299;BME280;73199;50.854;4.342;2023-10-13T05:31:52;100614.18;;;20.69;51.27
83299;BME280;73199;50.854;4.342;2023-10-13T05:34:18;100610.76;;;20.64;51.72
83299;BME280;73199;50.854;4.342;2023-10-13T05:36:43;100616.19;;;21.17;50.87
83299;BME280;73199;50.854;4.342;2023-10-13T05:39:09;100607.52;;;20.78;51.16
83299;BME280;73199;50.854;4.342;2023-10-13T05:41:35;100606.40;;;20.91;50.37
83299;BME280;73199;50.854;4.342;2023-10-13T05:44:00;100604.80;;;21.14;50.55
83299;BME280;73199;50.854;4.342;2023-10-13T05:46:26;100605.70;;;20.94;50.97
83299;BME280;73199;50.854;4.342;2023-10-13T05:48:51;100597.50;;;20.80;51.39
83299;BME280;73199;50.854;4.342;2023-10-13T05:51:16;100599.08;;;20.58;51.72
83299;BME280;73199;50.854;4.342;2023-10-13T05:53:41;100593.18;;;20.97;51.02
83299;BME280;73199;50.854;4.342;2023-10-13T05:56:06;100590.47;;;20.91;51.49
83299;BME280;73199;50.854;4.342;2023-10-13T05:58:32;100584.81;;;21.43;50.24
83299;BME280;73199;50.854;4.342;2023-10-13T06:00:57;100582.87;;;21.45;49.47
83299;BME280;73199;50.854;4.342;2023-10-13T06:03:24;100576.43;;;21.80;49.07
83299;BME280;73199;50.854;4.342;2023-10-13T06:05:49;100573.80;;;21.81;48.85
83299;BME280;73199;50.854;4.342;2023-10-13T06:08:14;100577.11;;;21.90;48.43
83299;BME280;73199;50.854;4.342;2023-10-13T06:10:40;100576.25;;;21.95;48.28
83299;BME280;73199;50.854;4.342;2023-10-13T06:13:05;100574.56;;;21.91;48.23
83299;BME280;73199;50.854;4.342;2023-10-13T06:15:36;100578.56;;;21.84;48.21
83299;BME280;73199;50.854;4.342;2023-10-13T06:17:56;100575.24;;;22.01;47.82
83299;BME280;73199;50.854;4.342;2023-10-13T06:20:21;100573.48;;;22.07;47.64
83299;BME280;73199;50.854;4.342;2023-10-13T06:22:47;100567.57;;;21.88;47.88
83299;BME280;73199;50.854;4.342;2023-10-13T06:25:12;100563.53;;;21.99;47.51
83299;BME280;73199;50.854;4.342;2023-10-13T06:27:37;100566.28;;;21.81;47.41
83299;BME280;73199;50.854;4.342;2023-10-13T06:30:04;100564.87;;;21.99;47.45
83299;BME280;73199;50.854;4.342;2023-10-13T06:32:28;100563.22;;;21.97;47.42
83299;BME280;73199;50.854;4.342;2023-10-13T06:34:54;100563.82;;;21.81;47.20
83299;BME280;73199;50.854;4.342;2023-10-13T06:37:19;100563.30;;;21.42;47.36
83299;BME280;73199;50.854;4.342;2023-10-13T06:39:45;100564.39;;;21.99;47.16
83299;BME280;73199;50.854;4.342;2023-10-13T06:42:10;100562.16;;;21.78;46.97
83299;BME280;73199;50.854;4.342;2023-10-13T06:44:36;100562.60;;;21.73;47.04
83299;BME280;73199;50.854;4.342;2023-10-13T06:47:06;100560.02;;;21.87;46.81
83299;BME280;73199;50.854;4.342;2023-10-13T06:49:27;100560.37;;;21.84;46.85
83299;BME280;73199;50.854;4.342;2023-10-13T06:51:58;100558.83;;;21.70;47.07
83299;BME280;73199;50.854;4.342;2023-10-13T06:54:18;100551.65;;;21.89;47.02
83299;BME280;73199;50.854;4.342;2023-10-13T06:56:44;100555.12;;;21.58;47.07
83299;BME280;73199;50.854;4.342;2023-10-13T06:59:09;100555.80;;;21.60;46.98
83299;BME280;73199;50.854;4.342;2023-10-13T07:01:35;100552.83;;;21.76;46.71
83299;BME280;73199;50.854;4.342;2023-10-13T07:04:00;100560.32;;;22.15;46.26
83299;BME280;73199;50.854;4.342;2023-10-13T07:06:26;100556.90;;;21.95;46.16
83299;BME280;73199;50.854;4.342;2023-10-13T07:08:52;100559.42;;;21.75;46.49
83299;BME280;73199;50.854;4.342;2023-10-13T07:11:24;100551.19;;;21.80;46.23
83299;BME280;73199;50.854;4.342;2023-10-13T07:13:43;100545.56;;;22.01;45.84
83299;BME280;73199;50.854;4.342;2023-10-13T07:16:08;100555.68;;;22.28;45.72
83299;BME280;73199;50.854;4.342;2023-10-13T07:18:34;100553.22;;;22.27;45.05
83299;BME280;73199;50.854;4.342;2023-10-13T07:20:59;100550.58;;;22.32;45.00
83299;BME280;73199;50.854;4.342;2023-10-13T07:23:25;100550.80;;;22.32;44.89
83299;BME280;73199;50.854;4.342;2023-10-13T07:25:53;100548.22;;;22.09;44.73
83299;BME280;73199;50.854;4.342;2023-10-13T07:28:16;100549.26;;;22.19;44.89
83299;BME280;73199;50.854;4.342;2023-10-13T07:30:42;100559.00;;;22.46;44.32
83299;BME280;73199;50.854;4.342;2023-10-13T07:33:07;100556.82;;;22.61;44.04
83299;BME280;73199;50.854;4.342;2023-10-13T07:35:33;100559.63;;;22.76;44.12
83299;BME280;73199;50.854;4.342;2023-10-13T07:37:58;100557.07;;;22.60;43.93
83299;BME280;73199;50.854;4.342;2023-10-13T07:40:29;100558.73;;;22.55;43.92
83299;BME280;73199;50.854;4.342;2023-10-13T07:42:49;100562.56;;;22.39;43.72
83299;BME280;73199;50.854;4.342;2023-10-13T07:45:15;100583.41;;;22.39;44.15
83299;BME280;73199;50.854;4.342;2023-10-13T07:47:40;100567.60;;;22.63;44.14
83299;BME280;73199;50.854;4.342;2023-10-13T07:50:07;100569.20;;;22.81;43.81
83299;BME280;73199;50.854;4.342;2023-10-13T07:52:31;100540.33;;;22.59;43.10
83299;BME280;73199;50.854;4.342;2023-10-13T07:54:56;100539.79;;;22.85;42.95
83299;BME280;73199;50.854;4.342;2023-10-13T07:57:22;100541.05;;;22.93;42.77
83299;BME280;73199;50.854;4.342;2023-10-13T07:59:48;100540.10;;;22.93;42.68
83299;BME280;73199;50.854;4.342;2023-10-13T08:02:13;100547.77;;;22.84;42.33
83299;BME280;73199;50.854;4.342;2023-10-13T08:04:39;100541.55;;;23.06;41.90
83299;BME280;73199;50.854;4.342;2023-10-13T08:07:04;100531.65;;;22.91;42.05
83299;BME280;73199;50.854;4.342;2023-10-13T08:09:29;100527.70;;;22.90;41.99
83299;BME280;73199;50.854;4.342;2023-10-13T08:11:55;100535.50;;;23.16;41.83
83299;BME280;73199;50.854;4.342;2023-10-13T08:14:20;100517.48;;;23.03;41.60
83299;BME280;73199;50.854;4.342;2023-10-13T08:16:51;100503.93;;;23.17;41.25
83299;BME280;73199;50.854;4.342;2023-10-13T08:19:12;100505.61;;;23.24;41.00
83299;BME280;73199;50.854;4.342;2023-10-13T08:21:37;100511.05;;;23.08;41.15
83299;BME280;73199;50.854;4.342;2023-10-13T08:24:02;100507.88;;;23.00;41.31
83299;BME280;73199;50.854;4.342;2023-10-13T08:26:28;100514.85;;;23.05;41.13
83299;BME280;73199;50.854;4.342;2023-10-13T08:28:58;100510.63;;;23.02;41.29
83299;BME280;73199;50.854;4.342;2023-10-13T08:31:18;100517.13;;;23.22;41.09
83299;BME280;73199;50.854;4.342;2023-10-13T08:33:44;100512.19;;;23.36;41.02
83299;BME280;73199;50.854;4.342;2023-10-13T08:36:09;100507.44;;;23.27;40.76
83299;BME280;73199;50.854;4.342;2023-10-13T08:38:35;100502.80;;;23.47;40.33
83299;BME280;73199;50.854;4.342;2023-10-13T08:41:00;100489.23;;;23.85;39.61
83299;BME280;73199;50.854;4.342;2023-10-13T08:43:27;100484.14;;;23.69;39.75
83299;BME280;73199;50.854;4.342;2023-10-13T08:45:52;100481.32;;;23.43;40.08
83299;BME280;73199;50.854;4.342;2023-10-13T08:48:18;100483.17;;;23.27;40.23
83299;BME280;73199;50.854;4.342;2023-10-13T08:50:44;100490.33;;;23.13;40.20
83299;BME280;73199;50.854;4.342;2023-10-13T08:53:08;100491.79;;;23.22;40.10
83299;BME280;73199;50.854;4.342;2023-10-13T08:55:34;100492.52;;;23.26;39.77
83299;BME280;73199;50.854;4.342;2023-10-13T08:57:59;100490.47;;;23.35;39.71
83299;BME280;73199;50.854;4.342;2023-10-13T09:00:24;100491.85;;;23.38;39.46
83299;BME280;73199;50.854;4.342;2023-10-13T09:02:50;100488.54;;;23.30;39.79
83299;BME280;73199;50.854;4.342;2023-10-13T09:05:16;100484.79;;;23.20;39.73
83299;BME280;73199;50.854;4.342;2023-10-13T09:07:45;100479.99;;;23.20;39.87
83299;BME280;73199;50.854;4.342;2023-10-13T09:10:06;100482.48;;;23.30;40.31
83299;BME280;73199;50.854;4.342;2023-10-13T09:12:32;100483.40;;;23.38;40.58
83299;BME280;73199;50.854;4.342;2023-10-13T09:14:57;100482.82;;;23.32;40.62
83299;BME280;73199;50.854;4.342;2023-10-13T09:17:22;100475.31;;;23.56;40.87
83299;BME280;73199;50.854;4.342;2023-10-13T09:19:48;100466.74;;;23.34;40.62
83299;BME280;73199;50.854;4.342;2023-10-13T09:22:21;100468.61;;;24.15;40.25
83299;BME280;73199;50.854;4.342;2023-10-13T09:24:39;100464.44;;;24.03;40.59
83299;BME280;73199;50.854;4.342;2023-10-13T09:27:04;100468.38;;;23.46;40.85
83299;BME280;73199;50.854;4.342;2023-10-13T09:29:29;100457.29;;;23.91;41.02
83299;BME280;73199;50.854;4.342;2023-10-13T09:32:02;100458.81;;;23.92;41.16
83299;BME280;73199;50.854;4.342;2023-10-13T09:34:22;100453.12;;;23.70;41.30
83299;BME280;73199;50.854;4.342;2023-10-13T09:36:47;100455.49;;;24.07;41.18
83299;BME280;73199;50.854;4.342;2023-10-13T09:39:12;100453.91;;;23.98;41.04
83299;BME280;73199;50.854;4.342;2023-10-13T09:41:37;100452.15;;;23.98;41.19
83299;BME280;73199;50.854;4.342;2023-10-13T09:44:03;100458.68;;;22.46;42.47
83299;BME280;73199;50.854;4.342;2023-10-13T09:46:28;100446.07;;;23.18;39.91
83299;BME280;73199;50.854;4.342;2023-10-13T09:48:57;100433.87;;;23.89;39.26
83299;BME280;73199;50.854;4.342;2023-10-13T09:51:19;100444.73;;;23.37;39.36
83299;BME280;73199;50.854;4.342;2023-10-13T09:53:51;100445.23;;;22.56;40.63
83299;BME280;73199;50.854;4.342;2023-10-13T09:56:12;100450.72;;;22.22;41.06
83299;BME280;73199;50.854;4.342;2023-10-13T09:58:36;100440.60;;;23.07;39.68
83299;BME280;73199;50.854;4.342;2023-10-13T10:01:03;100436.82;;;22.73;40.39
83299;BME280;73199;50.854;4.342;2023-10-13T10:03:32;100432.39;;;23.11;39.70
83299;BME280;73199;50.854;4.342;2023-10-13T10:05:57;100434.79;;;23.39;39.23
83299;BME280;73199;50.854;4.342;2023-10-13T10:08:24;100429.14;;;22.68;39.51
83299;BME280;73199;50.854;4.342;2023-10-13T10:10:50;100436.31;;;22.91;39.87
83299;BME280;73199;50.854;4.342;2023-10-13T10:13:15;100431.75;;;22.54;40.03
83299;BME280;73199;50.854;4.342;2023-10-13T10:15:35;100430.77;;;22.73;39.90
83299;BME280;73199;50.854;4.342;2023-10-13T10:18:01;100430.00;;;22.12;40.89
83299;BME280;73199;50.854;4.342;2023-10-13T10:20:29;100425.65;;;22.64;40.31
83299;BME280;73199;50.854;4.342;2023-10-13T10:22:57;100420.40;;;22.97;39.25
83299;BME280;73199;50.854;4.342;2023-10-13T10:25:31;100426.00;;;23.01;39.36
83299;BME280;73199;50.854;4.342;2023-10-13T10:27:43;100423.34;;;22.78;39.44
83299;BME280;73199;50.854;4.342;2023-10-13T10:30:08;100421.01;;;22.07;40.68
83299;BME280;73199;50.854;4.342;2023-10-13T10:32:35;100419.07;;;22.17;40.34
83299;BME280;73199;50.854;4.342;2023-10-13T10:35:04;100415.75;;;21.99;41.10
83299;BME280;73199;50.854;4.342;2023-10-13T10:37:30;100419.85;;;22.25;40.71
83299;BME280;73199;50.854;4.342;2023-10-13T10:39:49;100413.22;;;23.54;38.98
83299;BME280;73199;50.854;4.342;2023-10-13T10:42:15;100399.43;;;22.83;39.83
83299;BME280;73199;50.854;4.342;2023-10-13T10:44:46;100404.45;;;23.36;39.30
83299;BME280;73199;50.854;4.342;2023-10-13T10:47:10;100405.00;;;22.39;39.78
83299;BME280;73199;50.854;4.342;2023-10-13T10:49:37;100401.71;;;24.38;37.95
83299;BME280;73199;50.854;4.342;2023-10-13T10:51:59;100398.28;;;24.24;37.24
83299;BME280;73199;50.854;4.342;2023-10-13T10:54:22;100395.25;;;24.32;37.27
83299;BME280;73199;50.854;4.342;2023-10-13T10:56:47;100394.45;;;24.07;37.62
83299;BME280;73199;50.854;4.342;2023-10-13T10:59:13;100396.95;;;23.67;38.26
83299;BME280;73199;50.854;4.342;2023-10-13T11:01:44;100388.61;;;23.59;38.08
83299;BME280;73199;50.854;4.342;2023-10-13T11:04:06;100394.13;;;23.12;39.20
83299;BME280;73199;50.854;4.342;2023-10-13T11:06:30;100387.92;;;23.50;38.49
83299;BME280;73199;50.854;4.342;2023-10-13T11:09:02;100391.84;;;24.22;38.08
83299;BME280;73199;50.854;4.342;2023-10-13T11:11:29;100375.24;;;24.37;37.45
83299;BME280;73199;50.854;4.342;2023-10-13T11:13:47;100374.83;;;23.51;38.18
83299;BME280;73199;50.854;4.342;2023-10-13T11:16:20;100381.06;;;24.00;37.44
83299;BME280;73199;50.854;4.342;2023-10-13T11:18:38;100378.44;;;24.08;37.13
83299;BME280;73199;50.854;4.342;2023-10-13T11:21:03;100369.19;;;24.48;36.60
83299;BME280;73199;50.854;4.342;2023-10-13T11:23:29;100385.96;;;23.91;37.59
83299;BME280;73199;50.854;4.342;2023-10-13T11:25:57;100377.93;;;22.97;38.67
83299;BME280;73199;50.854;4.342;2023-10-13T11:28:19;100363.64;;;23.94;36.56
83299;BME280;73199;50.854;4.342;2023-10-13T11:30:46;100358.72;;;24.33;36.48
83299;BME280;73199;50.854;4.342;2023-10-13T11:33:12;100361.65;;;23.27;37.34
83299;BME280;73199;50.854;4.342;2023-10-13T11:35:37;100360.69;;;23.51;37.16
83299;BME280;73199;50.854;4.342;2023-10-13T11:38:02;100351.18;;;24.21;36.64
83299;BME280;73199;50.854;4.342;2023-10-13T11:40:28;100356.26;;;23.86;36.74
83299;BME280;73199;50.854;4.342;2023-10-13T11:42:53;100350.41;;;24.16;35.97
83299;BME280;73199;50.854;4.342;2023-10-13T11:45:19;100343.60;;;24.70;35.47
83299;BME280;73199;50.854;4.342;2023-10-13T11:47:45;100346.74;;;24.48;35.76
83299;BME280;73199;50.854;4.342;2023-10-13T11:50:10;100342.24;;;24.53;35.30
83299;BME280;73199;50.854;4.342;2023-10-13T11:52:35;100346.64;;;23.85;36.26
83299;BME280;73199;50.854;4.342;2023-10-13T11:55:06;100345.72;;;24.35;35.61
83299;BME280;73199;50.854;4.342;2023-10-13T11:57:26;100337.48;;;24.50;35.39
83299;BME280;73199;50.854;4.342;2023-10-13T11:59:52;100345.09;;;24.25;35.25
83299;BME280;73199;50.854;4.342;2023-10-13T12:04:43;100346.10;;;24.28;35.96
83299;BME280;73199;50.854;4.342;2023-10-13T12:07:08;100339.80;;;24.40;36.31
83299;BME280;73199;50.854;4.342;2023-10-13T12:09:34;100345.71;;;24.04;36.26
83299;BME280;73199;50.854;4.342;2023-10-13T12:11:59;100343.06;;;24.39;35.80
83299;BME280;73199;50.854;4.342;2023-10-13T12:14:25;100338.69;;;24.08;36.01
83299;BME280;73199;50.854;4.342;2023-10-13T12:16:50;100337.90;;;23.60;36.84
83299;BME280;73199;50.854;4.342;2023-10-13T12:19:16;100334.70;;;23.75;36.54
83299;BME280;73199;50.854;4.342;2023-10-13T12:21:42;100336.69;;;24.27;36.14
83299;BME280;73199;50.854;4.342;2023-10-13T12:24:07;100340.44;;;23.72;36.48
83299;BME280;73199;50.854;4.342;2023-10-13T12:26:33;100328.68;;;23.92;36.25
83299;BME280;73199;50.854;4.342;2023-10-13T12:28:58;100337.20;;;24.07;35.75
83299;BME280;73199;50.854;4.342;2023-10-13T12:31:24;100347.03;;;24.12;36.46
83299;BME280;73199;50.854;4.342;2023-10-13T12:33:49;100331.23;;;23.46;36.47
83299;BME280;73199;50.854;4.342;2023-10-13T12:36:14;100337.90;;;23.41;37.14
83299;BME280;73199;50.854;4.342;2023-10-13T12:38:41;100321.99;;;24.00;36.57
83299;BME280;73199;50.854;4.342;2023-10-13T12:41:06;100333.38;;;24.02;36.04
83299;BME280;73199;50.854;4.342;2023-10-13T12:43:31;100324.59;;;24.00;35.78
83299;BME280;73199;50.854;4.342;2023-10-13T12:45:57;100332.16;;;23.72;36.01